sensor_id;sensor_type;location;lat;lon;timestamp;temperature;humidity
20066;DHT22;10193;48.884;9.182;2022-12-05T00:01:42;6.30;76.40
20066;DHT22;10193;48.884;9.182;2022-12-05T00:04:11;6.30;76.20
20066;DHT22;10193;48.884;9.182;2022-12-05T00:06:41;6.30;76.10
20066;DHT22;10193;48.884;9.182;2022-12-05T00:09:09;6.30;75.90
20066;DHT22;10193;48.884;9.182;2022-12-05T00:11:38;6.30;75.80
20066;DHT22;10193;48.884;9.182;2022-12-05T00:14:07;6.30;75.70
20066;DHT22;10193;48.884;9.182;2022-12-05T00:16:35;6.20;75.60
20066;DHT22;10193;48.884;9.182;2022-12-05T00:19:04;6.20;75.50
20066;DHT22;10193;48.884;9.182;2022-12-05T00:21:32;6.20;75.40
20066;DHT22;10193;48.884;9.182;2022-12-05T00:24:02;6.20;75.40
20066;DHT22;10193;48.884;9.182;2022-12-05T00:26:30;6.20;75.50
20066;DHT22;10193;48.884;9.182;2022-12-05T00:28:57;6.10;75.40
20066;DHT22;10193;48.884;9.182;2022-12-05T00:31:25;6.10;75.50
20066;DHT22;10193;48.884;9.182;2022-12-05T00:33:52;6.10;75.60
20066;DHT22;10193;48.884;9.182;2022-12-05T00:36:21;6.10;75.60
20066;DHT22;10193;48.884;9.182;2022-12-05T00:38:48;6.10;75.50
20066;DHT22;10193;48.884;9.182;2022-12-05T00:41:18;6.10;75.60
20066;DHT22;10193;48.884;9.182;2022-12-05T00:43:45;6.00;75.40
20066;DHT22;10193;48.884;9.182;2022-12-05T00:46:14;6.10;75.50
20066;DHT22;10193;48.884;9.182;2022-12-05T00:48:40;6.10;75.40
20066;DHT22;10193;48.884;9.182;2022-12-05T00:51:10;6.10;75.40
20066;DHT22;10193;48.884;9.182;2022-12-05T00:53:37;6.10;75.40
20066;DHT22;10193;48.884;9.182;2022-12-05T00:56:06;6.10;75.30
20066;DHT22;10193;48.884;9.182;2022-12-05T00:58:34;6.10;75.30
20066;DHT22;10193;48.884;9.182;2022-12-05T01:01:05;6.00;75.20
20066;DHT22;10193;48.884;9.182;2022-12-05T01:03:32;6.00;75.20
20066;DHT22;10193;48.884;9.182;2022-12-05T01:05:59;6.00;75.20
20066;DHT22;10193;48.884;9.182;2022-12-05T01:08:26;6.00;75.10
20066;DHT22;10193;48.884;9.182;2022-12-05T01:10:53;6.00;75.20
20066;DHT22;10193;48.884;9.182;2022-12-05T01:13:20;6.00;75.20
20066;DHT22;10193;48.884;9.182;2022-12-05T01:15:49;6.00;75.20
20066;DHT22;10193;48.884;9.182;2022-12-05T01:18:16;6.00;75.30
20066;DHT22;10193;48.884;9.182;2022-12-05T01:20:43;6.00;75.30
20066;DHT22;10193;48.884;9.182;2022-12-05T01:23:10;6.00;75.30
20066;DHT22;10193;48.884;9.182;2022-12-05T01:25:38;6.00;75.30
20066;DHT22;10193;48.884;9.182;2022-12-05T01:28:05;6.00;75.30
20066;DHT22;10193;48.884;9.182;2022-12-05T01:30:32;6.00;75.30
20066;DHT22;10193;48.884;9.182;2022-12-05T01:33:00;6.00;75.20
20066;DHT22;10193;48.884;9.182;2022-12-05T01:35:26;6.00;75.20
20066;DHT22;10193;48.884;9.182;2022-12-05T01:37:56;6.00;75.30
20066;DHT22;10193;48.884;9.182;2022-12-05T01:40:22;6.00;75.30
20066;DHT22;10193;48.884;9.182;2022-12-05T01:42:49;6.00;75.30
20066;DHT22;10193;48.884;9.182;2022-12-05T01:45:20;6.00;75.40
20066;DHT22;10193;48.884;9.182;2022-12-05T01:47:48;6.00;75.40
20066;DHT22;10193;48.884;9.182;2022-12-05T01:50:16;6.00;75.40
20066;DHT22;10193;48.884;9.182;2022-12-05T01:52:43;6.00;75.40
20066;DHT22;10193;48.884;9.182;2022-12-05T01:55:13;6.00;75.40
20066;DHT22;10193;48.884;9.182;2022-12-05T01:57:40;6.00;75.30
20066;DHT22;10193;48.884;9.182;2022-12-05T02:00:10;6.00;75.40
20066;DHT22;10193;48.884;9.182;2022-12-05T02:02:38;6.00;75.40
20066;DHT22;10193;48.884;9.182;2022-12-05T02:05:11;6.00;75.30
20066;DHT22;10193;48.884;9.182;2022-12-05T02:07:42;6.00;75.20
20066;DHT22;10193;48.884;9.182;2022-12-05T02:10:09;6.00;75.20
20066;DHT22;10193;48.884;9.182;2022-12-05T02:12:37;6.00;75.90
20066;DHT22;10193;48.884;9.182;2022-12-05T02:15:25;6.00;75.20
20066;DHT22;10193;48.884;9.182;2022-12-05T02:18:03;6.00;75.10
20066;DHT22;10193;48.884;9.182;2022-12-05T02:20:43;6.00;75.10
20066;DHT22;10193;48.884;9.182;2022-12-05T02:23:31;5.90;75.00
20066;DHT22;10193;48.884;9.182;2022-12-05T02:29:41;5.90;75.00
20066;DHT22;10193;48.884;9.182;2022-12-05T02:32:15;5.90;75.10
20066;DHT22;10193;48.884;9.182;2022-12-05T02:34:46;5.90;75.10
20066;DHT22;10193;48.884;9.182;2022-12-05T02:37:25;5.90;75.30
20066;DHT22;10193;48.884;9.182;2022-12-05T02:39:58;5.90;75.20
20066;DHT22;10193;48.884;9.182;2022-12-05T02:42:30;5.90;75.30
20066;DHT22;10193;48.884;9.182;2022-12-05T02:45:02;5.90;75.40
20066;DHT22;10193;48.884;9.182;2022-12-05T02:47:35;5.90;75.40
20066;DHT22;10193;48.884;9.182;2022-12-05T02:50:05;5.90;75.30
20066;DHT22;10193;48.884;9.182;2022-12-05T02:52:33;5.90;75.40
20066;DHT22;10193;48.884;9.182;2022-12-05T02:55:02;5.90;75.40
20066;DHT22;10193;48.884;9.182;2022-12-05T02:57:29;5.90;75.40
20066;DHT22;10193;48.884;9.182;2022-12-05T02:59:56;5.90;75.40
20066;DHT22;10193;48.884;9.182;2022-12-05T03:02:27;5.90;75.40
20066;DHT22;10193;48.884;9.182;2022-12-05T03:04:57;5.90;75.40
20066;DHT22;10193;48.884;9.182;2022-12-05T03:07:27;5.90;75.40
20066;DHT22;10193;48.884;9.182;2022-12-05T03:09:57;5.90;75.40
20066;DHT22;10193;48.884;9.182;2022-12-05T03:12:28;5.90;75.40
20066;DHT22;10193;48.884;9.182;2022-12-05T03:15:02;5.90;75.40
20066;DHT22;10193;48.884;9.182;2022-12-05T03:17:34;6.00;75.40
20066;DHT22;10193;48.884;9.182;2022-12-05T03:20:07;5.90;75.40
20066;DHT22;10193;48.884;9.182;2022-12-05T03:22:38;6.00;75.40
20066;DHT22;10193;48.884;9.182;2022-12-05T03:25:08;6.00;75.60
20066;DHT22;10193;48.884;9.182;2022-12-05T03:27:43;6.00;75.50
20066;DHT22;10193;48.884;9.182;2022-12-05T03:30:15;6.00;75.40
20066;DHT22;10193;48.884;9.182;2022-12-05T03:32:48;6.00;75.50
20066;DHT22;10193;48.884;9.182;2022-12-05T03:35:21;6.00;75.60
20066;DHT22;10193;48.884;9.182;2022-12-05T03:37:52;6.00;75.60
20066;DHT22;10193;48.884;9.182;2022-12-05T03:40:27;6.10;75.70
20066;DHT22;10193;48.884;9.182;2022-12-05T03:43:02;6.10;75.60
20066;DHT22;10193;48.884;9.182;2022-12-05T03:45:36;6.10;75.60
20066;DHT22;10193;48.884;9.182;2022-12-05T03:48:10;6.10;75.60
20066;DHT22;10193;48.884;9.182;2022-12-05T03:50:40;6.10;75.50
20066;DHT22;10193;48.884;9.182;2022-12-05T03:53:12;6.20;75.70
20066;DHT22;10193;48.884;9.182;2022-12-05T03:55:42;6.10;75.60
20066;DHT22;10193;48.884;9.182;2022-12-05T03:58:13;6.20;75.70
20066;DHT22;10193;48.884;9.182;2022-12-05T04:00:44;6.20;75.70
20066;DHT22;10193;48.884;9.182;2022-12-05T04:03:15;6.20;75.70
20066;DHT22;10193;48.884;9.182;2022-12-05T04:05:46;6.20;75.70
20066;DHT22;10193;48.884;9.182;2022-12-05T04:08:19;6.20;75.70
20066;DHT22;10193;48.884;9.182;2022-12-05T04:10:49;6.20;75.70
20066;DHT22;10193;48.884;9.182;2022-12-05T04:13:22;6.30;75.70
20066;DHT22;10193;48.884;9.182;2022-12-05T04:15:53;6.30;75.70
20066;DHT22;10193;48.884;9.182;2022-12-05T04:18:59;6.30;75.70
20066;DHT22;10193;48.884;9.182;2022-12-05T04:21:33;6.30;75.70
20066;DHT22;10193;48.884;9.182;2022-12-05T04:24:05;6.30;75.70
20066;DHT22;10193;48.884;9.182;2022-12-05T04:26:57;6.30;75.70
20066;DHT22;10193;48.884;9.182;2022-12-05T04:29:31;6.30;75.70
20066;DHT22;10193;48.884;9.182;2022-12-05T04:32:03;6.40;75.80
20066;DHT22;10193;48.884;9.182;2022-12-05T04:34:34;6.30;75.70
20066;DHT22;10193;48.884;9.182;2022-12-05T04:37:05;6.40;75.90
20066;DHT22;10193;48.884;9.182;2022-12-05T04:39:38;6.40;75.90
20066;DHT22;10193;48.884;9.182;2022-12-05T04:42:07;6.40;75.80
20066;DHT22;10193;48.884;9.182;2022-12-05T04:44:37;6.40;75.80
20066;DHT22;10193;48.884;9.182;2022-12-05T04:47:07;6.40;75.70
20066;DHT22;10193;48.884;9.182;2022-12-05T04:49:37;6.50;75.90
20066;DHT22;10193;48.884;9.182;2022-12-05T04:52:08;6.40;75.70
20066;DHT22;10193;48.884;9.182;2022-12-05T04:54:38;6.50;75.90
20066;DHT22;10193;48.884;9.182;2022-12-05T04:57:11;6.50;75.80
20066;DHT22;10193;48.884;9.182;2022-12-05T04:59:38;6.50;75.80
20066;DHT22;10193;48.884;9.182;2022-12-05T05:02:08;6.50;75.80
20066;DHT22;10193;48.884;9.182;2022-12-05T05:04:40;6.50;75.70
20066;DHT22;10193;48.884;9.182;2022-12-05T05:07:09;6.50;75.60
20066;DHT22;10193;48.884;9.182;2022-12-05T05:09:37;6.50;75.60
20066;DHT22;10193;48.884;9.182;2022-12-05T05:12:04;6.50;75.60
20066;DHT22;10193;48.884;9.182;2022-12-05T05:14:31;6.50;75.60
20066;DHT22;10193;48.884;9.182;2022-12-05T05:16:58;6.50;75.60
20066;DHT22;10193;48.884;9.182;2022-12-05T05:19:24;6.50;75.60
20066;DHT22;10193;48.884;9.182;2022-12-05T05:21:52;6.50;75.50
20066;DHT22;10193;48.884;9.182;2022-12-05T05:24:19;6.50;75.50
20066;DHT22;10193;48.884;9.182;2022-12-05T05:26:48;6.50;75.50
20066;DHT22;10193;48.884;9.182;2022-12-05T05:29:15;6.50;75.50
20066;DHT22;10193;48.884;9.182;2022-12-05T05:31:42;6.50;75.40
20066;DHT22;10193;48.884;9.182;2022-12-05T05:34:09;6.50;75.40
20066;DHT22;10193;48.884;9.182;2022-12-05T05:36:37;6.50;75.50
20066;DHT22;10193;48.884;9.182;2022-12-05T05:39:05;6.50;75.60
20066;DHT22;10193;48.884;9.182;2022-12-05T05:41:36;6.50;75.60
20066;DHT22;10193;48.884;9.182;2022-12-05T05:44:03;6.50;75.60
20066;DHT22;10193;48.884;9.182;2022-12-05T05:46:33;6.50;75.50
20066;DHT22;10193;48.884;9.182;2022-12-05T05:49:00;6.50;75.50
20066;DHT22;10193;48.884;9.182;2022-12-05T05:51:27;6.50;75.50
20066;DHT22;10193;48.884;9.182;2022-12-05T05:53:54;6.40;75.30
20066;DHT22;10193;48.884;9.182;2022-12-05T05:56:22;6.40;75.50
20066;DHT22;10193;48.884;9.182;2022-12-05T05:58:56;6.50;75.50
20066;DHT22;10193;48.884;9.182;2022-12-05T06:01:23;6.40;75.40
20066;DHT22;10193;48.884;9.182;2022-12-05T06:03:49;6.40;75.50
20066;DHT22;10193;48.884;9.182;2022-12-05T06:06:17;6.40;75.50
20066;DHT22;10193;48.884;9.182;2022-12-05T06:08:44;6.40;75.60
20066;DHT22;10193;48.884;9.182;2022-12-05T06:11:13;6.40;75.70
20066;DHT22;10193;48.884;9.182;2022-12-05T06:13:42;6.40;75.70
20066;DHT22;10193;48.884;9.182;2022-12-05T06:16:11;6.40;75.70
20066;DHT22;10193;48.884;9.182;2022-12-05T06:18:38;6.40;75.90
20066;DHT22;10193;48.884;9.182;2022-12-05T06:21:05;6.40;75.90
20066;DHT22;10193;48.884;9.182;2022-12-05T06:23:33;6.40;75.90
20066;DHT22;10193;48.884;9.182;2022-12-05T06:26:00;6.50;76.10
20066;DHT22;10193;48.884;9.182;2022-12-05T06:28:27;6.50;76.10
20066;DHT22;10193;48.884;9.182;2022-12-05T06:30:55;6.50;76.00
20066;DHT22;10193;48.884;9.182;2022-12-05T06:33:22;6.50;75.90
20066;DHT22;10193;48.884;9.182;2022-12-05T06:35:48;6.50;76.00
20066;DHT22;10193;48.884;9.182;2022-12-05T06:38:26;6.50;76.00
20066;DHT22;10193;48.884;9.182;2022-12-05T06:40:52;6.50;76.00
20066;DHT22;10193;48.884;9.182;2022-12-05T06:43:19;6.50;76.10
20066;DHT22;10193;48.884;9.182;2022-12-05T06:45:46;6.50;76.10
20066;DHT22;10193;48.884;9.182;2022-12-05T06:48:14;6.50;76.10
20066;DHT22;10193;48.884;9.182;2022-12-05T06:50:47;6.60;76.20
20066;DHT22;10193;48.884;9.182;2022-12-05T06:53:14;6.50;76.00
20066;DHT22;10193;48.884;9.182;2022-12-05T06:55:40;6.60;76.20
20066;DHT22;10193;48.884;9.182;2022-12-05T06:58:07;6.60;76.10
20066;DHT22;10193;48.884;9.182;2022-12-05T07:00:34;6.60;76.00
20066;DHT22;10193;48.884;9.182;2022-12-05T07:03:19;6.60;76.00
20066;DHT22;10193;48.884;9.182;2022-12-05T07:05:46;6.60;76.00
20066;DHT22;10193;48.884;9.182;2022-12-05T07:08:13;6.60;76.00
20066;DHT22;10193;48.884;9.182;2022-12-05T07:10:39;6.70;76.20
20066;DHT22;10193;48.884;9.182;2022-12-05T07:13:06;6.70;76.20
20066;DHT22;10193;48.884;9.182;2022-12-05T07:15:32;6.70;76.10
20066;DHT22;10193;48.884;9.182;2022-12-05T07:17:59;6.70;76.10
20066;DHT22;10193;48.884;9.182;2022-12-05T07:20:27;6.70;76.20
20066;DHT22;10193;48.884;9.182;2022-12-05T07:22:54;6.70;76.10
20066;DHT22;10193;48.884;9.182;2022-12-05T07:25:20;6.70;76.20
20066;DHT22;10193;48.884;9.182;2022-12-05T07:27:47;6.70;76.20
20066;DHT22;10193;48.884;9.182;2022-12-05T07:30:14;6.70;76.20
20066;DHT22;10193;48.884;9.182;2022-12-05T07:32:41;6.80;76.30
20066;DHT22;10193;48.884;9.182;2022-12-05T07:35:08;6.80;76.20
20066;DHT22;10193;48.884;9.182;2022-12-05T07:37:36;6.80;76.20
20066;DHT22;10193;48.884;9.182;2022-12-05T07:40:03;6.80;76.20
20066;DHT22;10193;48.884;9.182;2022-12-05T07:42:30;6.80;76.30
20066;DHT22;10193;48.884;9.182;2022-12-05T07:44:57;6.80;76.20
20066;DHT22;10193;48.884;9.182;2022-12-05T07:47:23;6.80;76.00
20066;DHT22;10193;48.884;9.182;2022-12-05T07:49:50;6.80;75.90
20066;DHT22;10193;48.884;9.182;2022-12-05T07:52:17;6.90;76.10
20066;DHT22;10193;48.884;9.182;2022-12-05T07:54:44;6.90;76.20
20066;DHT22;10193;48.884;9.182;2022-12-05T07:57:11;6.80;76.20
20066;DHT22;10193;48.884;9.182;2022-12-05T07:59:38;6.90;76.30
20066;DHT22;10193;48.884;9.182;2022-12-05T08:02:05;6.90;76.50
20066;DHT22;10193;48.884;9.182;2022-12-05T08:04:31;6.90;76.40
20066;DHT22;10193;48.884;9.182;2022-12-05T08:06:58;7.00;76.50
20066;DHT22;10193;48.884;9.182;2022-12-05T08:09:25;6.90;76.30
20066;DHT22;10193;48.884;9.182;2022-12-05T08:11:53;6.90;76.30
20066;DHT22;10193;48.884;9.182;2022-12-05T08:14:20;7.00;76.30
20066;DHT22;10193;48.884;9.182;2022-12-05T08:16:46;7.00;76.30
20066;DHT22;10193;48.884;9.182;2022-12-05T08:19:13;7.00;76.20
20066;DHT22;10193;48.884;9.182;2022-12-05T08:21:41;7.00;76.20
20066;DHT22;10193;48.884;9.182;2022-12-05T08:24:08;7.00;76.30
20066;DHT22;10193;48.884;9.182;2022-12-05T08:26:36;7.00;76.30
20066;DHT22;10193;48.884;9.182;2022-12-05T08:29:06;7.00;76.40
20066;DHT22;10193;48.884;9.182;2022-12-05T08:31:37;7.00;76.50
20066;DHT22;10193;48.884;9.182;2022-12-05T08:34:05;7.00;76.60
20066;DHT22;10193;48.884;9.182;2022-12-05T08:36:32;7.10;76.70
20066;DHT22;10193;48.884;9.182;2022-12-05T08:39:00;7.10;76.60
20066;DHT22;10193;48.884;9.182;2022-12-05T08:41:27;7.10;76.60
20066;DHT22;10193;48.884;9.182;2022-12-05T08:43:55;7.10;76.70
20066;DHT22;10193;48.884;9.182;2022-12-05T08:46:23;7.10;76.70
20066;DHT22;10193;48.884;9.182;2022-12-05T08:48:50;7.20;76.80
20066;DHT22;10193;48.884;9.182;2022-12-05T08:51:17;7.20;76.80
20066;DHT22;10193;48.884;9.182;2022-12-05T08:53:44;7.20;76.80
20066;DHT22;10193;48.884;9.182;2022-12-05T08:56:11;7.30;76.90
20066;DHT22;10193;48.884;9.182;2022-12-05T08:58:38;7.30;76.80
20066;DHT22;10193;48.884;9.182;2022-12-05T09:01:06;7.30;76.80
20066;DHT22;10193;48.884;9.182;2022-12-05T09:03:34;7.30;76.80
20066;DHT22;10193;48.884;9.182;2022-12-05T09:06:05;7.30;76.60
20066;DHT22;10193;48.884;9.182;2022-12-05T09:08:32;7.30;76.60
20066;DHT22;10193;48.884;9.182;2022-12-05T09:10:59;7.40;76.60
20066;DHT22;10193;48.884;9.182;2022-12-05T09:13:29;7.40;76.70
20066;DHT22;10193;48.884;9.182;2022-12-05T09:15:56;7.40;77.00
20066;DHT22;10193;48.884;9.182;2022-12-05T09:18:22;7.40;76.80
20066;DHT22;10193;48.884;9.182;2022-12-05T09:20:50;7.40;76.90
20066;DHT22;10193;48.884;9.182;2022-12-05T09:23:17;7.50;76.90
20066;DHT22;10193;48.884;9.182;2022-12-05T09:25:44;7.50;76.90
20066;DHT22;10193;48.884;9.182;2022-12-05T09:28:10;7.50;76.90
20066;DHT22;10193;48.884;9.182;2022-12-05T09:30:37;7.60;77.10
20066;DHT22;10193;48.884;9.182;2022-12-05T09:33:03;7.60;76.90
20066;DHT22;10193;48.884;9.182;2022-12-05T09:35:30;7.60;76.90
20066;DHT22;10193;48.884;9.182;2022-12-05T09:37:58;7.60;76.80
20066;DHT22;10193;48.884;9.182;2022-12-05T09:40:25;7.70;76.90
20066;DHT22;10193;48.884;9.182;2022-12-05T09:42:57;7.70;76.80
20066;DHT22;10193;48.884;9.182;2022-12-05T09:45:34;7.70;76.80
20066;DHT22;10193;48.884;9.182;2022-12-05T09:48:06;7.70;76.80
20066;DHT22;10193;48.884;9.182;2022-12-05T09:50:42;7.80;76.80
20066;DHT22;10193;48.884;9.182;2022-12-05T09:53:24;7.80;76.70
20066;DHT22;10193;48.884;9.182;2022-12-05T09:55:55;7.80;76.60
20066;DHT22;10193;48.884;9.182;2022-12-05T09:58:27;7.80;76.70
20066;DHT22;10193;48.884;9.182;2022-12-05T10:00:59;7.80;76.70
20066;DHT22;10193;48.884;9.182;2022-12-05T10:03:32;7.80;76.80
20066;DHT22;10193;48.884;9.182;2022-12-05T10:06:11;7.90;77.00
20066;DHT22;10193;48.884;9.182;2022-12-05T10:08:50;7.90;77.00
20066;DHT22;10193;48.884;9.182;2022-12-05T10:11:24;7.90;77.00
20066;DHT22;10193;48.884;9.182;2022-12-05T10:13:57;8.00;77.10
20066;DHT22;10193;48.884;9.182;2022-12-05T10:16:31;8.00;77.20
20066;DHT22;10193;48.884;9.182;2022-12-05T10:19:01;8.10;77.40
20066;DHT22;10193;48.884;9.182;2022-12-05T10:21:31;8.10;77.40
20066;DHT22;10193;48.884;9.182;2022-12-05T10:24:02;8.20;77.30
20066;DHT22;10193;48.884;9.182;2022-12-05T10:26:33;8.20;77.10
20066;DHT22;10193;48.884;9.182;2022-12-05T10:29:10;8.30;77.00
20066;DHT22;10193;48.884;9.182;2022-12-05T10:31:40;8.30;76.70
20066;DHT22;10193;48.884;9.182;2022-12-05T10:34:14;8.30;76.50
20066;DHT22;10193;48.884;9.182;2022-12-05T10:36:44;8.30;76.10
20066;DHT22;10193;48.884;9.182;2022-12-05T10:39:16;8.30;75.90
20066;DHT22;10193;48.884;9.182;2022-12-05T10:41:43;8.30;75.70
20066;DHT22;10193;48.884;9.182;2022-12-05T10:44:10;8.30;76.40
20066;DHT22;10193;48.884;9.182;2022-12-05T10:46:37;8.30;75.60
20066;DHT22;10193;48.884;9.182;2022-12-05T10:49:08;8.30;75.60
20066;DHT22;10193;48.884;9.182;2022-12-05T10:51:37;8.30;75.60
20066;DHT22;10193;48.884;9.182;2022-12-05T10:54:12;8.20;75.70
20066;DHT22;10193;48.884;9.182;2022-12-05T10:56:43;8.20;75.70
20066;DHT22;10193;48.884;9.182;2022-12-05T10:59:12;8.20;75.80
20066;DHT22;10193;48.884;9.182;2022-12-05T11:01:44;8.20;76.00
20066;DHT22;10193;48.884;9.182;2022-12-05T11:04:19;8.20;76.20
20066;DHT22;10193;48.884;9.182;2022-12-05T11:06:50;8.20;76.40
20066;DHT22;10193;48.884;9.182;2022-12-05T11:09:20;8.30;76.80
20066;DHT22;10193;48.884;9.182;2022-12-05T11:12:00;8.30;77.10
20066;DHT22;10193;48.884;9.182;2022-12-05T11:14:28;8.30;77.10
20066;DHT22;10193;48.884;9.182;2022-12-05T11:16:57;8.40;77.70
20066;DHT22;10193;48.884;9.182;2022-12-05T11:19:27;8.50;78.00
20066;DHT22;10193;48.884;9.182;2022-12-05T11:21:54;8.60;78.20
20066;DHT22;10193;48.884;9.182;2022-12-05T11:24:23;8.70;78.40
20066;DHT22;10193;48.884;9.182;2022-12-05T11:26:51;8.80;78.50
20066;DHT22;10193;48.884;9.182;2022-12-05T11:29:31;8.90;78.30
20066;DHT22;10193;48.884;9.182;2022-12-05T11:31:58;8.90;77.60
20066;DHT22;10193;48.884;9.182;2022-12-05T11:34:29;9.00;77.70
20066;DHT22;10193;48.884;9.182;2022-12-05T11:36:59;9.10;77.50
20066;DHT22;10193;48.884;9.182;2022-12-05T11:39:27;9.10;77.20
20066;DHT22;10193;48.884;9.182;2022-12-05T11:42:20;9.20;77.20
20066;DHT22;10193;48.884;9.182;2022-12-05T11:45:15;9.30;76.90
20066;DHT22;10193;48.884;9.182;2022-12-05T11:48:02;9.30;76.50
20066;DHT22;10193;48.884;9.182;2022-12-05T11:50:40;9.30;76.50
20066;DHT22;10193;48.884;9.182;2022-12-05T11:53:36;9.40;76.60
20066;DHT22;10193;48.884;9.182;2022-12-05T11:56:12;9.40;76.50
20066;DHT22;10193;48.884;9.182;2022-12-05T11:58:55;9.50;76.90
20066;DHT22;10193;48.884;9.182;2022-12-05T12:01:37;9.50;76.70
20066;DHT22;10193;48.884;9.182;2022-12-05T12:07:31;9.60;76.50
20066;DHT22;10193;48.884;9.182;2022-12-05T12:10:09;9.70;76.40
20066;DHT22;10193;48.884;9.182;2022-12-05T12:12:45;9.70;76.20
20066;DHT22;10193;48.884;9.182;2022-12-05T12:15:43;9.70;76.20
20066;DHT22;10193;48.884;9.182;2022-12-05T12:18:23;9.80;75.90
20066;DHT22;10193;48.884;9.182;2022-12-05T12:21:01;9.80;75.40
20066;DHT22;10193;48.884;9.182;2022-12-05T12:23:44;9.80;75.00
20066;DHT22;10193;48.884;9.182;2022-12-05T12:26:15;9.80;74.90
20066;DHT22;10193;48.884;9.182;2022-12-05T12:28:59;9.80;75.00
20066;DHT22;10193;48.884;9.182;2022-12-05T12:31:45;9.70;74.60
20066;DHT22;10193;48.884;9.182;2022-12-05T12:34:34;9.70;74.50
20066;DHT22;10193;48.884;9.182;2022-12-05T12:37:09;9.70;74.50
20066;DHT22;10193;48.884;9.182;2022-12-05T12:39:45;9.70;74.70
20066;DHT22;10193;48.884;9.182;2022-12-05T12:42:20;9.70;74.50
20066;DHT22;10193;48.884;9.182;2022-12-05T12:45:21;9.70;74.60
20066;DHT22;10193;48.884;9.182;2022-12-05T12:48:05;9.70;74.30
20066;DHT22;10193;48.884;9.182;2022-12-05T12:50:39;9.70;74.60
20066;DHT22;10193;48.884;9.182;2022-12-05T12:53:31;9.70;74.60
20066;DHT22;10193;48.884;9.182;2022-12-05T12:56:10;9.70;74.10
20066;DHT22;10193;48.884;9.182;2022-12-05T12:58:45;9.70;74.30
20066;DHT22;10193;48.884;9.182;2022-12-05T13:01:20;9.70;74.20
20066;DHT22;10193;48.884;9.182;2022-12-05T13:03:51;9.60;74.00
20066;DHT22;10193;48.884;9.182;2022-12-05T13:06:24;9.60;73.90
20066;DHT22;10193;48.884;9.182;2022-12-05T13:08:54;9.60;73.90
20066;DHT22;10193;48.884;9.182;2022-12-05T13:11:23;9.60;74.80
20066;DHT22;10193;48.884;9.182;2022-12-05T13:13:52;9.60;74.10
20066;DHT22;10193;48.884;9.182;2022-12-05T13:16:23;9.50;73.90
20066;DHT22;10193;48.884;9.182;2022-12-05T13:18:50;9.50;73.70
20066;DHT22;10193;48.884;9.182;2022-12-05T13:21:20;9.50;73.90
20066;DHT22;10193;48.884;9.182;2022-12-05T13:23:49;9.40;73.70
20066;DHT22;10193;48.884;9.182;2022-12-05T13:26:16;9.50;73.90
20066;DHT22;10193;48.884;9.182;2022-12-05T13:28:49;9.40;73.80
20066;DHT22;10193;48.884;9.182;2022-12-05T13:31:16;9.30;73.80
20066;DHT22;10193;48.884;9.182;2022-12-05T13:33:45;9.30;73.80
20066;DHT22;10193;48.884;9.182;2022-12-05T13:36:14;9.30;73.80
20066;DHT22;10193;48.884;9.182;2022-12-05T13:39:03;9.30;73.90
20066;DHT22;10193;48.884;9.182;2022-12-05T13:41:51;9.20;74.70
20066;DHT22;10193;48.884;9.182;2022-12-05T13:44:38;9.20;74.10
20066;DHT22;10193;48.884;9.182;2022-12-05T13:47:07;9.20;73.90
20066;DHT22;10193;48.884;9.182;2022-12-05T13:49:48;9.10;73.90
20066;DHT22;10193;48.884;9.182;2022-12-05T13:52:20;9.10;73.90
20066;DHT22;10193;48.884;9.182;2022-12-05T13:54:55;9.10;73.70
20066;DHT22;10193;48.884;9.182;2022-12-05T14:00:29;9.00;73.40
20066;DHT22;10193;48.884;9.182;2022-12-05T14:02:58;9.00;73.60
20066;DHT22;10193;48.884;9.182;2022-12-05T14:05:50;8.90;74.30
20066;DHT22;10193;48.884;9.182;2022-12-05T14:11:30;8.90;73.40
20066;DHT22;10193;48.884;9.182;2022-12-05T14:13:58;8.80;73.60
20066;DHT22;10193;48.884;9.182;2022-12-05T14:16:46;8.80;73.70
20066;DHT22;10193;48.884;9.182;2022-12-05T14:22:20;8.70;73.80
20066;DHT22;10193;48.884;9.182;2022-12-05T14:24:55;8.70;73.90
20066;DHT22;10193;48.884;9.182;2022-12-05T14:27:40;8.70;74.00
20066;DHT22;10193;48.884;9.182;2022-12-05T14:30:19;8.60;74.00
20066;DHT22;10193;48.884;9.182;2022-12-05T14:32:48;8.70;74.10
20066;DHT22;10193;48.884;9.182;2022-12-05T14:35:18;8.60;74.20
20066;DHT22;10193;48.884;9.182;2022-12-05T14:37:51;8.60;74.30
20066;DHT22;10193;48.884;9.182;2022-12-05T14:40:23;8.70;74.40
20066;DHT22;10193;48.884;9.182;2022-12-05T14:42:55;8.70;74.50
20066;DHT22;10193;48.884;9.182;2022-12-05T14:45:32;8.60;74.30
20066;DHT22;10193;48.884;9.182;2022-12-05T14:48:01;8.60;74.20
20066;DHT22;10193;48.884;9.182;2022-12-05T14:50:41;8.60;74.10
20066;DHT22;10193;48.884;9.182;2022-12-05T14:53:30;8.60;74.00
20066;DHT22;10193;48.884;9.182;2022-12-05T14:56:04;8.60;73.80
20066;DHT22;10193;48.884;9.182;2022-12-05T14:58:40;8.60;74.10
20066;DHT22;10193;48.884;9.182;2022-12-05T15:01:14;8.50;74.00
20066;DHT22;10193;48.884;9.182;2022-12-05T15:03:46;8.50;73.90
20066;DHT22;10193;48.884;9.182;2022-12-05T15:06:16;8.50;73.80
20066;DHT22;10193;48.884;9.182;2022-12-05T15:08:45;8.50;73.80
20066;DHT22;10193;48.884;9.182;2022-12-05T15:11:15;8.50;74.60
20066;DHT22;10193;48.884;9.182;2022-12-05T15:13:56;8.40;73.80
20066;DHT22;10193;48.884;9.182;2022-12-05T15:16:24;8.40;73.90
20066;DHT22;10193;48.884;9.182;2022-12-05T15:18:56;8.40;74.00
20066;DHT22;10193;48.884;9.182;2022-12-05T15:21:28;8.40;74.00
20066;DHT22;10193;48.884;9.182;2022-12-05T15:23:58;8.40;74.00
20066;DHT22;10193;48.884;9.182;2022-12-05T15:26:26;8.30;74.10
20066;DHT22;10193;48.884;9.182;2022-12-05T15:29:02;8.30;74.10
20066;DHT22;10193;48.884;9.182;2022-12-05T15:31:30;8.30;74.10
20066;DHT22;10193;48.884;9.182;2022-12-05T15:34:01;8.30;74.10
20066;DHT22;10193;48.884;9.182;2022-12-05T15:36:33;8.30;74.20
20066;DHT22;10193;48.884;9.182;2022-12-05T15:39:03;8.30;74.10
20066;DHT22;10193;48.884;9.182;2022-12-05T15:41:30;8.30;74.30
20066;DHT22;10193;48.884;9.182;2022-12-05T15:43:57;8.30;74.20
20066;DHT22;10193;48.884;9.182;2022-12-05T15:46:25;8.20;74.00
20066;DHT22;10193;48.884;9.182;2022-12-05T15:48:54;8.30;74.20
20066;DHT22;10193;48.884;9.182;2022-12-05T15:51:24;8.30;74.20
20066;DHT22;10193;48.884;9.182;2022-12-05T15:53:55;8.20;74.20
20066;DHT22;10193;48.884;9.182;2022-12-05T15:56:28;8.20;74.20
20066;DHT22;10193;48.884;9.182;2022-12-05T15:59:01;8.20;74.30
20066;DHT22;10193;48.884;9.182;2022-12-05T16:01:32;8.20;74.20
20066;DHT22;10193;48.884;9.182;2022-12-05T16:04:06;8.20;74.30
20066;DHT22;10193;48.884;9.182;2022-12-05T16:06:39;8.20;74.30
20066;DHT22;10193;48.884;9.182;2022-12-05T16:09:13;8.20;74.30
20066;DHT22;10193;48.884;9.182;2022-12-05T16:11:49;8.20;75.20
20066;DHT22;10193;48.884;9.182;2022-12-05T16:14:16;8.20;74.60
20066;DHT22;10193;48.884;9.182;2022-12-05T16:16:44;8.20;74.80
20066;DHT22;10193;48.884;9.182;2022-12-05T16:19:14;8.20;74.90
20066;DHT22;10193;48.884;9.182;2022-12-05T16:21:45;8.20;75.00
20066;DHT22;10193;48.884;9.182;2022-12-05T16:24:17;8.20;75.10
20066;DHT22;10193;48.884;9.182;2022-12-05T16:26:52;8.20;75.00